createdAt,value
2023-04-26T00:05:55.795Z,4.45
2023-04-26T00:16:01.527Z,4.19
2023-04-26T00:26:07.705Z,3.93
2023-04-26T00:36:14.005Z,3.71
2023-04-26T00:46:19.698Z,3.47
2023-04-26T00:56:27.404Z,3.24
2023-04-26T01:06:38.620Z,3.05
2023-04-26T01:16:47.743Z,2.92
2023-04-26T01:26:53.619Z,2.80
2023-04-26T01:36:59.270Z,2.65
2023-04-26T01:47:04.944Z,2.55
2023-04-26T01:57:10.612Z,2.36
2023-04-26T02:07:16.221Z,2.16
2023-04-26T02:17:22.911Z,1.98
2023-04-26T02:27:28.900Z,1.74
2023-04-26T02:37:35.215Z,1.54
2023-04-26T02:47:41.173Z,1.39
2023-04-26T02:57:47.067Z,1.18
2023-04-26T03:07:53.090Z,1.01
2023-04-26T03:17:59.326Z,0.84
2023-04-26T03:28:05.440Z,0.69
2023-04-26T03:38:11.209Z,0.60
2023-04-26T03:48:17.542Z,0.64
2023-04-26T03:58:23.408Z,0.88
2023-04-26T04:08:28.975Z,1.26
2023-04-26T04:18:34.661Z,1.67
2023-04-26T04:28:41.491Z,2.21
2023-04-26T04:38:47.331Z,2.82
2023-04-26T04:48:53.573Z,3.44
2023-04-26T04:58:59.589Z,4.07
2023-04-26T05:09:05.911Z,8.12
2023-04-26T05:19:13.449Z,16.15
2023-04-26T05:29:19.112Z,20.32
2023-04-26T05:39:24.832Z,22.28
2023-04-26T05:49:30.610Z,23.87
2023-04-26T05:59:41.460Z,27.53
2023-04-26T06:09:47.140Z,26.67
2023-04-26T06:19:53.080Z,25.68
2023-04-26T06:29:58.820Z,29.23
2023-04-26T06:40:04.898Z,28.85
2023-04-26T06:50:12.796Z,26.61
2023-04-26T07:00:19.707Z,27.10
2023-04-26T07:10:26.217Z,22.48
2023-04-26T07:20:32.057Z,23.87
2023-04-26T07:30:37.931Z,25.77
2023-04-26T07:40:43.873Z,24.24
2023-04-26T07:50:48.133Z,25.88
2023-04-26T08:00:55.228Z,27.02
2023-04-26T08:11:01.098Z,24.19
2023-04-26T08:21:07.089Z,20.99
2023-04-26T08:31:12.772Z,15.71
2023-04-26T08:41:24.920Z,14.16
2023-04-26T08:51:33.292Z,12.64
2023-04-26T09:01:42.213Z,12.79
2023-04-26T09:12:05.004Z,12.08
2023-04-26T09:22:11.725Z,12.39
2023-04-26T09:32:17.462Z,11.59
2023-04-26T09:42:23.115Z,12.97
2023-04-26T09:52:29.451Z,12.04
2023-04-26T10:02:35.910Z,11.86
2023-04-26T10:12:43.673Z,11.47
2023-04-26T10:22:55.051Z,10.81
2023-04-26T10:33:23.913Z,10.47
2023-04-26T10:43:33.022Z,10.47
2023-04-26T10:54:02.628Z,10.44
2023-04-26T11:04:10.350Z,10.21
2023-04-26T11:14:15.551Z,10.32
2023-04-26T11:24:27.955Z,10.12
2023-04-26T11:34:36.584Z,9.94
2023-04-26T11:44:42.629Z,9.79
2023-04-26T11:54:48.314Z,9.30
2023-04-26T12:05:01.432Z,9.71
2023-04-26T12:15:13.911Z,9.74
2023-04-26T12:25:21.848Z,10.08
2023-04-26T12:35:27.820Z,10.11
2023-04-26T12:45:33.964Z,9.99
2023-04-26T12:55:39.796Z,9.82
2023-04-26T13:05:45.801Z,10.04
2023-04-26T13:15:52.105Z,10.13
2023-04-26T13:25:57.852Z,9.68
2023-04-26T13:36:03.605Z,9.34
2023-04-26T13:46:09.469Z,9.58
2023-04-26T13:56:15.429Z,9.96
2023-04-26T14:06:21.323Z,9.74
2023-04-26T14:16:27.704Z,9.42
2023-04-26T14:26:34.039Z,9.46
2023-04-26T14:36:39.862Z,9.50
2023-04-26T14:46:45.638Z,9.08
2023-04-26T14:56:51.466Z,8.58
2023-04-26T15:06:57.881Z,8.34
2023-04-26T15:17:03.648Z,8.21
2023-04-26T15:27:10.130Z,8.40
2023-04-26T15:37:15.826Z,8.56
2023-04-26T15:47:21.609Z,8.63
2023-04-26T15:57:27.566Z,8.72
2023-04-26T16:07:33.955Z,8.62
2023-04-26T16:17:40.357Z,8.34
2023-04-26T16:27:45.961Z,8.23
2023-04-26T16:37:51.792Z,8.17
2023-04-26T16:47:57.464Z,8.10
2023-04-26T16:58:03.367Z,8.09
2023-04-26T17:08:09.354Z,7.88
2023-04-26T17:18:15.268Z,7.62
2023-04-26T17:28:21.062Z,7.34
2023-04-26T17:38:27.157Z,7.19
2023-04-26T17:48:33.000Z,6.93
2023-04-26T17:58:38.779Z,6.44
2023-04-26T18:08:45.250Z,6.01
2023-04-26T18:18:51.140Z,5.70
2023-04-26T18:28:57.120Z,5.44
2023-04-26T18:39:03.067Z,5.19
2023-04-26T18:49:08.763Z,5.01
2023-04-26T18:59:14.570Z,4.80
2023-04-26T19:09:20.694Z,4.40
2023-04-26T19:19:26.402Z,3.99
2023-04-26T19:29:32.176Z,3.61
2023-04-26T19:39:38.380Z,3.31
2023-04-26T19:49:44.100Z,2.99
2023-04-26T19:59:49.940Z,2.71
2023-04-26T20:09:56.075Z,2.45
2023-04-26T20:20:02.175Z,2.26
2023-04-26T20:30:10.338Z,2.08
2023-04-26T20:40:16.449Z,1.90
2023-04-26T20:50:22.896Z,1.75
2023-04-26T21:00:28.979Z,1.59
2023-04-26T21:10:35.184Z,1.44
2023-04-26T21:20:41.536Z,1.33
2023-04-26T21:30:47.800Z,1.31
2023-04-26T21:40:54.139Z,1.27
2023-04-26T21:51:00.361Z,1.14
2023-04-26T22:01:14.331Z,1.00
2023-04-26T22:11:21.730Z,0.80
2023-04-26T22:21:28.578Z,0.63
2023-04-26T22:31:33.309Z,0.47
2023-04-26T22:41:39.711Z,0.33
2023-04-26T22:51:57.383Z,0.19
2023-04-26T23:02:08.325Z,-0.01
2023-04-26T23:12:17.642Z,-0.17
2023-04-26T23:22:24.217Z,-0.31
2023-04-26T23:32:30.439Z,-0.48
2023-04-26T23:42:36.640Z,-0.60
2023-04-26T23:52:42.857Z,-0.68
